createdAt,value
2018-04-27T00:03:54.744Z,6.86
2018-04-27T00:09:45.463Z,7.61
2018-04-27T00:15:36.239Z,7.59
2018-04-27T00:21:26.993Z,7.38
2018-04-27T00:27:17.723Z,6.78
2018-04-27T00:33:08.369Z,6.44
2018-04-27T00:38:59.134Z,7.21
2018-04-27T00:44:49.921Z,7.02
2018-04-27T00:50:40.619Z,6.7
2018-04-27T00:56:31.274Z,7.03
2018-04-27T01:02:21.990Z,6.82
2018-04-27T01:08:12.704Z,7.15
2018-04-27T01:14:03.417Z,6.84
2018-04-27T01:19:54.156Z,6.63
2018-04-27T01:25:44.890Z,6.28
2018-04-27T01:31:35.631Z,6.05
2018-04-27T01:37:26.362Z,6.46
2018-04-27T01:43:17.082Z,7.26
2018-04-27T01:49:07.776Z,6.31
2018-04-27T01:54:58.487Z,6.17
2018-04-27T02:00:49.194Z,6.16
2018-04-27T02:06:39.997Z,6.91
2018-04-27T02:12:30.660Z,6.53
2018-04-27T02:18:21.395Z,6.56
2018-04-27T02:24:12.163Z,5.78
2018-04-27T02:30:02.817Z,6.14
2018-04-27T02:35:53.626Z,6.63
2018-04-27T02:41:44.279Z,6.33
2018-04-27T02:47:35.005Z,6.89
2018-04-27T02:53:25.745Z,6.6
2018-04-27T02:59:16.448Z,6.62
2018-04-27T03:05:07.167Z,5.75
2018-04-27T03:10:57.878Z,6.24
2018-04-27T03:16:48.600Z,6.12
2018-04-27T03:22:39.358Z,7.1
2018-04-27T03:28:30.088Z,6.55
2018-04-27T03:34:20.877Z,6.46
2018-04-27T03:40:11.480Z,6.78
2018-04-27T03:46:02.192Z,6.79
2018-04-27T03:51:53.005Z,6.61
2018-04-27T03:57:43.666Z,6.26
2018-04-27T04:03:34.380Z,6.37
2018-04-27T04:09:25.105Z,6.78
2018-04-27T04:15:15.792Z,6.2
2018-04-27T04:21:06.590Z,6.17
2018-04-27T04:26:57.301Z,5.82
2018-04-27T04:32:48.031Z,5.92
2018-04-27T04:38:38.756Z,6.87
2018-04-27T04:44:29.400Z,7.14
2018-04-27T04:50:20.108Z,8.15
2018-04-27T04:56:10.839Z,6.64
2018-04-27T05:02:01.582Z,7.26
2018-04-27T05:07:52.269Z,6.35
2018-04-27T05:13:42.998Z,5.93
2018-04-27T05:19:33.757Z,6.5
2018-04-27T05:25:24.423Z,5.8
2018-04-27T05:31:15.189Z,6.43
2018-04-27T05:37:05.876Z,6.41
2018-04-27T05:42:56.654Z,6.6
2018-04-27T05:48:47.292Z,6.96
2018-04-27T05:54:38.041Z,6.28
2018-04-27T06:00:28.756Z,7.1
2018-04-27T06:06:19.423Z,6.36
2018-04-27T06:12:10.161Z,6.56
2018-04-27T06:18:00.878Z,7.42
2018-04-27T06:23:51.609Z,8.82
2018-04-27T06:29:42.306Z,9.5
2018-04-27T06:35:33.056Z,9.71
2018-04-27T06:41:23.769Z,8.61
2018-04-27T06:47:14.469Z,9.96
2018-04-27T06:53:05.227Z,11.33
2018-04-27T06:58:55.900Z,11.42
2018-04-27T07:04:46.623Z,9.98
2018-04-27T07:10:37.315Z,11.96
2018-04-27T07:16:28.124Z,11.56
2018-04-27T07:22:18.868Z,12.45
2018-04-27T07:28:09.493Z,15.37
2018-04-27T07:34:00.223Z,14.3
2018-04-27T07:39:50.911Z,13.44
2018-04-27T07:45:41.665Z,13.49
2018-04-27T07:51:32.389Z,14.39
2018-04-27T07:57:23.141Z,15.45
2018-04-27T08:03:13.851Z,13.02
2018-04-27T08:09:04.547Z,14.87
2018-04-27T08:14:55.313Z,12.49
2018-04-27T08:20:45.982Z,13.68
2018-04-27T08:26:36.770Z,14.82
2018-04-27T08:32:27.495Z,15.06
2018-04-27T08:38:18.184Z,13.85
2018-04-27T08:44:08.937Z,12.14
2018-04-27T08:49:59.667Z,12.14
2018-04-27T08:55:50.379Z,12.3
2018-04-27T09:01:41.142Z,11.38
2018-04-27T09:07:31.856Z,11.2
2018-04-27T09:13:22.629Z,8.31
2018-04-27T09:19:13.315Z,8.15
2018-04-27T09:25:04.024Z,8.03
2018-04-27T09:30:54.756Z,8.38
2018-04-27T09:36:45.501Z,5.78
2018-04-27T09:42:36.240Z,5.76
2018-04-27T09:48:27.055Z,6.43
2018-04-27T09:54:17.748Z,5.01
2018-04-27T10:00:08.418Z,4.42
2018-04-27T10:05:59.158Z,4.15
2018-04-27T10:11:49.920Z,4.4
2018-04-27T10:17:40.635Z,3.7
2018-04-27T10:23:31.391Z,4.2
2018-04-27T10:29:22.137Z,4.01
2018-04-27T10:35:12.982Z,4.31
2018-04-27T10:41:03.624Z,3.89
2018-04-27T10:46:54.410Z,4.6
2018-04-27T10:52:45.233Z,3.57
2018-04-27T10:58:35.938Z,3.83
2018-04-27T11:04:26.655Z,3.88
2018-04-27T11:10:17.418Z,3.72
2018-04-27T11:16:08.162Z,4.53
2018-04-27T11:21:58.951Z,4.7
2018-04-27T11:27:49.621Z,4.2
2018-04-27T11:33:40.427Z,4.63
2018-04-27T11:39:31.211Z,4.31
2018-04-27T11:45:21.916Z,3.98
2018-04-27T11:51:12.664Z,3.91
2018-04-27T11:57:03.464Z,4.31
2018-04-27T12:02:54.204Z,4.76
2018-04-27T12:08:44.952Z,4.55
2018-04-27T12:14:35.741Z,4.3
2018-04-27T12:20:26.492Z,5.33
2018-04-27T12:26:17.229Z,4.66
2018-04-27T12:32:08.001Z,4.4
2018-04-27T12:37:58.820Z,4.56
2018-04-27T12:43:49.523Z,4.61
2018-04-27T12:49:40.299Z,4.46
2018-04-27T12:55:31.085Z,4.55
2018-04-27T13:01:21.854Z,4.56
2018-04-27T13:07:12.616Z,4.2
2018-04-27T13:13:03.392Z,4.55
2018-04-27T13:18:54.143Z,5.17
2018-04-27T13:24:44.942Z,4.66
2018-04-27T13:30:35.697Z,5.07
2018-04-27T13:36:26.505Z,5.4
2018-04-27T13:42:17.289Z,5.28
2018-04-27T13:48:08.069Z,5.52
2018-04-27T13:53:58.819Z,5.11
2018-04-27T13:59:49.580Z,5.81
2018-04-27T14:05:40.425Z,5.4
2018-04-27T14:11:31.103Z,5.59
2018-04-27T14:17:21.901Z,5.22
2018-04-27T14:23:12.688Z,5.21
2018-04-27T14:29:03.430Z,4.94
2018-04-27T14:34:54.245Z,5.35
2018-04-27T14:40:45.018Z,5.22
2018-04-27T14:46:35.840Z,4.79
2018-04-27T14:52:26.609Z,6.24
2018-04-27T14:58:17.318Z,5.81
2018-04-27T15:04:08.135Z,5.85
2018-04-27T15:09:58.896Z,6.62
2018-04-27T15:15:49.656Z,5.28
2018-04-27T15:21:40.483Z,6.09
2018-04-27T15:27:31.228Z,6.39
2018-04-27T15:33:22.016Z,9.74
2018-04-27T15:39:12.787Z,6.11
2018-04-27T15:45:03.505Z,7.13
2018-04-27T15:50:54.275Z,6.23
2018-04-27T15:56:45.061Z,6.3
2018-04-27T16:02:35.803Z,5.89
2018-04-27T16:08:26.557Z,5.5
2018-04-27T16:14:17.329Z,6.07
2018-04-27T16:20:08.106Z,6.24
2018-04-27T16:25:58.841Z,6.14
2018-04-27T16:31:49.641Z,6.21
2018-04-27T16:37:40.370Z,6.38
2018-04-27T16:43:31.119Z,6.04
2018-04-27T16:49:21.921Z,5.7
2018-04-27T16:55:12.640Z,5.57
2018-04-27T17:01:03.366Z,5.99
2018-04-27T17:06:54.145Z,5.96
2018-04-27T17:12:44.922Z,6.19
2018-04-27T17:18:35.739Z,6
2018-04-27T17:24:26.424Z,5.26
2018-04-27T17:30:17.150Z,5.55
2018-04-27T17:36:07.916Z,5.72
2018-04-27T17:41:58.684Z,6.43
2018-04-27T17:47:49.416Z,6.09
2018-04-27T17:53:40.195Z,6.74
2018-04-27T17:59:30.916Z,6.66
2018-04-27T18:05:21.662Z,7.03
2018-04-27T18:11:12.504Z,5.86
2018-04-27T18:17:03.206Z,7.09
2018-04-27T18:22:54.043Z,6.81
2018-04-27T18:28:44.743Z,8.1
2018-04-27T18:34:35.452Z,7.55
2018-04-27T18:40:26.165Z,7.71
2018-04-27T18:46:16.924Z,8.49
2018-04-27T18:52:07.679Z,7.1
2018-04-27T18:57:58.416Z,6.26
2018-04-27T19:03:49.199Z,5.81
2018-04-27T19:09:39.905Z,6.73
2018-04-27T19:15:30.672Z,6.89
2018-04-27T19:21:21.421Z,6.5
2018-04-27T19:27:12.194Z,6.36
2018-04-27T19:33:02.932Z,6.73
2018-04-27T19:38:53.656Z,7.27
2018-04-27T19:44:44.395Z,6.39
2018-04-27T19:50:35.133Z,6.41
2018-04-27T19:56:25.864Z,7.1
2018-04-27T20:02:16.663Z,6.79
2018-04-27T20:08:07.380Z,6.28
2018-04-27T20:13:58.235Z,5.94
2018-04-27T20:19:48.843Z,7.25
2018-04-27T20:25:39.671Z,6.7
2018-04-27T20:31:30.296Z,5.87
2018-04-27T20:37:21.072Z,7.04
2018-04-27T20:43:11.792Z,6.76
2018-04-27T20:49:02.523Z,6.49
2018-04-27T20:54:53.321Z,6.21
2018-04-27T21:00:44.014Z,7.34
2018-04-27T21:06:34.749Z,6.21
2018-04-27T21:12:25.501Z,7.09
2018-04-27T21:18:16.271Z,6.11
2018-04-27T21:24:06.938Z,6.01
2018-04-27T21:29:57.694Z,6.24
2018-04-27T21:35:48.545Z,6.6
2018-04-27T21:41:39.152Z,7.06
2018-04-27T21:47:29.995Z,6.61
2018-04-27T21:53:20.653Z,6.94
2018-04-27T21:59:11.437Z,6.84
2018-04-27T22:05:02.115Z,7.04
2018-04-27T22:10:52.870Z,7.56
2018-04-27T22:16:43.618Z,6.15
2018-04-27T22:22:34.373Z,6.24
2018-04-27T22:28:25.046Z,6.87
2018-04-27T22:34:15.782Z,6.1
2018-04-27T22:40:06.520Z,6.66
2018-04-27T22:45:57.251Z,6.13
2018-04-27T22:51:47.986Z,7.05
2018-04-27T22:57:38.744Z,6.62
2018-04-27T23:03:29.510Z,6.39
2018-04-27T23:09:20.190Z,6.86
2018-04-27T23:15:10.930Z,6.78
2018-04-27T23:21:01.674Z,7.65
2018-04-27T23:26:52.381Z,7.56
2018-04-27T23:32:43.169Z,7.05
2018-04-27T23:38:33.923Z,6.34
2018-04-27T23:44:24.604Z,7.18
2018-04-27T23:50:15.304Z,6.98
2018-04-27T23:56:06.096Z,6.17
